PWSweather.com
Personal Weather Stations
Station Observations
KMAMEDFI2
Medfield, MA 02052

Medfield, MA 02052

Lat: 42.1900822, Lon: -71.3296889

Elevation: 138

Station Type: Rainwise WS MK-III

http://www.medfieldweather.com

High Low Average
Temperature 65.4°F18.6°C 40.9°F4.9°C 54.5°F12.5°C
Dew Point 56.2°F13.4°C 39.8°F4.3°C 52.0°F11.1°C
Winds 8.1 mph 13.0 kmh Calm Calm 4.0 mph S6.4 kmh S
Wind Gusts 15.0 mph24.1 kmh -- 6.0 mph9.7 kmh
Humidity 97% 70% 92%
Pressure 29.93 in1013.5 mb 29.64 in1003.7 mb -
Precipitation 0.20 in5.1 mm - -
Hour Temp Dew Point Humidity Winds Wind Gusts Pressure Precip Precip Rate Daily Precip Total
12:00 AM 53.0°F11.7°C 52.1°F11.2°C 97% 4.6 mph SSE7.4 kmh SSE 5.8 mph9.3 kmh 29.93 in1013.5 mb - 0.00 in0.0 mm 0.00 in0.0 mm
12:10 AM 53.2°F11.8°C 52.4°F11.3°C 97% 2.3 mph SE3.7 kmh SE 2.3 mph3.7 kmh 29.92 in1013.2 mb - 0.00 in0.0 mm 0.00 in0.0 mm
12:20 AM 53.2°F11.8°C 52.4°F11.3°C 97% 3.5 mph SSE5.6 kmh SSE 3.5 mph5.6 kmh 29.92 in1013.2 mb - 0.00 in0.0 mm 0.00 in0.0 mm
12:30 AM 53.5°F11.9°C 52.7°F11.5°C 97% 3.5 mph S5.6 kmh S 2.3 mph3.7 kmh 29.92 in1013.2 mb - 0.00 in0.0 mm 0.00 in0.0 mm
12:40 AM 53.9°F12.2°C 53.0°F11.7°C 97% 3.5 mph SE5.6 kmh SE 3.5 mph5.6 kmh 29.92 in1013.2 mb - 0.00 in0.0 mm 0.00 in0.0 mm
12:50 AM 53.9°F12.2°C 53.1°F11.7°C 97% 3.5 mph SSE5.6 kmh SSE 5.8 mph9.3 kmh 29.92 in1013.2 mb - 0.00 in0.0 mm 0.00 in0.0 mm
01:00 AM 53.9°F12.2°C 53.1°F11.7°C 97% 2.3 mph SE3.7 kmh SE 6.9 mph11.1 kmh 29.91 in1012.9 mb - 0.00 in0.0 mm 0.00 in0.0 mm
01:10 AM 53.9°F12.2°C 53.0°F11.7°C 97% 2.3 mph SE3.7 kmh SE 3.5 mph5.6 kmh 29.91 in1012.9 mb - 0.00 in0.0 mm 0.00 in0.0 mm
01:20 AM 53.9°F12.2°C 53.1°F11.7°C 97% 3.5 mph SSE5.6 kmh SSE 8.1 mph13.0 kmh 29.91 in1012.9 mb - 0.00 in0.0 mm 0.00 in0.0 mm
01:30 AM 54.2°F12.3°C 53.4°F11.9°C 97% 3.5 mph SSW5.6 kmh SSW 6.9 mph11.1 kmh 29.90 in1012.5 mb - 0.00 in0.0 mm 0.00 in0.0 mm
01:40 AM 54.2°F12.3°C 53.4°F11.9°C 97% 2.3 mph S3.7 kmh S 2.3 mph3.7 kmh 29.90 in1012.5 mb - 0.00 in0.0 mm 0.00 in0.0 mm
01:50 AM 54.3°F12.4°C 53.5°F11.9°C 97% 3.5 mph SSE5.6 kmh SSE 11.5 mph18.5 kmh 29.90 in1012.5 mb - 0.00 in0.0 mm 0.00 in0.0 mm
02:00 AM 54.2°F12.3°C 53.4°F11.9°C 97% 3.5 mph S5.6 kmh S 5.8 mph9.3 kmh 29.89 in1012.2 mb - 0.00 in0.0 mm 0.00 in0.0 mm
02:10 AM 54.2°F12.3°C 53.4°F11.9°C 97% 3.5 mph SSE5.6 kmh SSE 5.8 mph9.3 kmh 29.89 in1012.2 mb - 0.00 in0.0 mm 0.00 in0.0 mm
02:20 AM 54.2°F12.3°C 53.4°F11.9°C 97% 4.6 mph S7.4 kmh S 11.5 mph18.5 kmh 29.88 in1011.9 mb - 0.00 in0.0 mm 0.00 in0.0 mm
02:30 AM 54.3°F12.4°C 53.5°F11.9°C 97% 2.3 mph SSW3.7 kmh SSW 2.3 mph3.7 kmh 29.88 in1011.9 mb - 0.00 in0.0 mm 0.00 in0.0 mm
02:40 AM 54.1°F12.3°C 53.3°F11.8°C 97% 5.8 mph S9.3 kmh S 9.2 mph14.8 kmh 29.88 in1011.9 mb - 0.00 in0.0 mm 0.00 in0.0 mm
02:50 AM 54.1°F12.3°C 53.3°F11.8°C 97% 2.3 mph SSW3.7 kmh SSW 2.3 mph3.7 kmh 29.88 in1011.9 mb - 0.00 in0.0 mm 0.00 in0.0 mm
03:00 AM 53.9°F12.2°C 53.1°F11.7°C 97% 3.5 mph SE5.6 kmh SE 5.8 mph9.3 kmh 29.87 in1011.5 mb - 0.00 in0.0 mm 0.00 in0.0 mm
03:10 AM 53.9°F12.2°C 53.1°F11.7°C 97% 1.2 mph S1.9 kmh S 2.3 mph3.7 kmh 29.87 in1011.5 mb - 0.00 in0.0 mm 0.00 in0.0 mm
03:20 AM 53.8°F12.1°C 53.0°F11.7°C 97% 3.5 mph S5.6 kmh S 6.9 mph11.1 kmh 29.87 in1011.5 mb - 0.00 in0.0 mm 0.00 in0.0 mm
03:30 AM 53.8°F12.1°C 53.0°F11.7°C 97% 3.5 mph SE5.6 kmh SE 3.5 mph5.6 kmh 29.86 in1011.2 mb - 0.00 in0.0 mm 0.00 in0.0 mm
03:40 AM 53.7°F12.1°C 52.9°F11.6°C 97% 4.6 mph SSE7.4 kmh SSE 9.2 mph14.8 kmh 29.86 in1011.2 mb - 0.00 in0.0 mm 0.00 in0.0 mm
03:50 AM 53.6°F12.0°C 52.8°F11.6°C 97% 1.2 mph SE1.9 kmh SE 2.3 mph3.7 kmh 29.86 in1011.2 mb - 0.00 in0.0 mm 0.00 in0.0 mm
04:00 AM 53.5°F11.9°C 52.7°F11.5°C 97% Calm Calm -- 29.86 in1011.2 mb - 0.00 in0.0 mm 0.00 in0.0 mm
04:10 AM 53.2°F11.8°C 52.3°F11.3°C 97% 3.5 mph SE5.6 kmh SE 2.3 mph3.7 kmh 29.85 in1010.8 mb - 0.00 in0.0 mm 0.00 in0.0 mm
04:20 AM 52.9°F11.6°C 52.1°F11.2°C 97% 3.5 mph SE5.6 kmh SE 5.8 mph9.3 kmh 29.85 in1010.8 mb - 0.00 in0.0 mm 0.00 in0.0 mm
04:30 AM 52.7°F11.5°C 51.9°F11.1°C 97% 3.5 mph SE5.6 kmh SE 3.5 mph5.6 kmh 29.84 in1010.5 mb - 0.00 in0.0 mm 0.00 in0.0 mm
04:40 AM 52.5°F11.4°C 51.7°F10.9°C 97% 2.3 mph ESE3.7 kmh ESE 5.8 mph9.3 kmh 29.84 in1010.5 mb - 0.00 in0.0 mm 0.00 in0.0 mm
04:50 AM 52.4°F11.3°C 51.6°F10.9°C 97% 2.3 mph SSE3.7 kmh SSE 2.3 mph3.7 kmh 29.84 in1010.5 mb - 0.00 in0.0 mm 0.00 in0.0 mm
05:00 AM 52.4°F11.3°C 51.6°F10.9°C 97% 2.3 mph SE3.7 kmh SE 5.8 mph9.3 kmh 29.84 in1010.5 mb - 0.00 in0.0 mm 0.00 in0.0 mm
05:10 AM 52.7°F11.5°C 51.9°F11.1°C 97% 3.5 mph SE5.6 kmh SE 3.5 mph5.6 kmh 29.84 in1010.5 mb - 0.00 in0.0 mm 0.00 in0.0 mm
05:20 AM 52.7°F11.5°C 51.9°F11.1°C 97% 2.3 mph SE3.7 kmh SE 2.3 mph3.7 kmh 29.84 in1010.5 mb - 0.00 in0.0 mm 0.00 in0.0 mm
05:30 AM 52.8°F11.6°C 52.0°F11.1°C 97% 2.3 mph S3.7 kmh S 5.8 mph9.3 kmh 29.84 in1010.5 mb - 0.00 in0.0 mm 0.00 in0.0 mm
05:40 AM 52.7°F11.5°C 51.9°F11.1°C 97% 2.3 mph E3.7 kmh E 3.5 mph5.6 kmh 29.84 in1010.5 mb - 0.00 in0.0 mm 0.00 in0.0 mm
05:50 AM 52.6°F11.4°C 51.8°F11.0°C 97% 4.6 mph SSE7.4 kmh SSE 8.1 mph13.0 kmh 29.83 in1010.2 mb - 0.00 in0.0 mm 0.00 in0.0 mm
06:00 AM 52.7°F11.5°C 51.9°F11.1°C 97% 4.6 mph SE7.4 kmh SE 2.3 mph3.7 kmh 29.83 in1010.2 mb - 0.00 in0.0 mm 0.00 in0.0 mm
06:10 AM 52.9°F11.6°C 52.1°F11.2°C 97% 3.5 mph ESE5.6 kmh ESE 2.3 mph3.7 kmh 29.82 in1009.8 mb - 0.00 in0.0 mm 0.00 in0.0 mm
06:20 AM 53.1°F11.7°C 52.3°F11.3°C 97% 1.2 mph WSW1.9 kmh WSW -- 29.83 in1010.2 mb - 0.00 in0.0 mm 0.00 in0.0 mm
06:30 AM 53.3°F11.8°C 52.5°F11.4°C 97% 3.5 mph SE5.6 kmh SE 8.1 mph13.0 kmh 29.82 in1009.8 mb - 0.00 in0.0 mm 0.00 in0.0 mm
06:40 AM 53.7°F12.1°C 52.3°F11.3°C 95% 3.5 mph SE5.6 kmh SE 3.5 mph5.6 kmh 29.82 in1009.8 mb - 0.00 in0.0 mm 0.00 in0.0 mm
06:50 AM 53.8°F12.1°C 52.4°F11.3°C 95% 3.5 mph SE5.6 kmh SE 6.9 mph11.1 kmh 29.82 in1009.8 mb - 0.00 in0.0 mm 0.00 in0.0 mm
07:00 AM 54.1°F12.3°C 52.4°F11.3°C 94% 3.5 mph SE5.6 kmh SE 2.3 mph3.7 kmh 29.82 in1009.8 mb - 0.00 in0.0 mm 0.00 in0.0 mm
07:10 AM 54.5°F12.5°C 52.8°F11.6°C 94% 3.5 mph S5.6 kmh S 5.8 mph9.3 kmh 29.81 in1009.5 mb - 0.00 in0.0 mm 0.00 in0.0 mm
07:20 AM 55.6°F13.1°C 53.0°F11.7°C 91% 4.6 mph S7.4 kmh S 8.1 mph13.0 kmh 29.81 in1009.5 mb - 0.00 in0.0 mm 0.00 in0.0 mm
07:30 AM 56.7°F13.7°C 53.5°F11.9°C 89% 3.5 mph SE5.6 kmh SE 5.8 mph9.3 kmh 29.81 in1009.5 mb - 0.00 in0.0 mm 0.00 in0.0 mm
07:40 AM 57.8°F14.3°C 53.6°F12.0°C 86% 2.3 mph S3.7 kmh S 2.3 mph3.7 kmh 29.81 in1009.5 mb - 0.00 in0.0 mm 0.00 in0.0 mm
07:50 AM 58.2°F14.6°C 53.4°F11.9°C 84% 4.6 mph SSE7.4 kmh SSE 5.8 mph9.3 kmh 29.81 in1009.5 mb - 0.00 in0.0 mm 0.00 in0.0 mm
08:00 AM 59.2°F15.1°C 53.7°F12.1°C 82% 3.5 mph SSE5.6 kmh SSE 3.5 mph5.6 kmh 29.82 in1009.8 mb - 0.00 in0.0 mm 0.00 in0.0 mm
08:10 AM 60.1°F15.6°C 53.9°F12.2°C 80% 5.8 mph S9.3 kmh S 8.1 mph13.0 kmh 29.81 in1009.5 mb - 0.00 in0.0 mm 0.00 in0.0 mm
08:20 AM 60.7°F15.9°C 54.2°F12.3°C 79% 6.9 mph SW11.1 kmh SW 9.2 mph14.8 kmh 29.81 in1009.5 mb - 0.00 in0.0 mm 0.00 in0.0 mm
08:30 AM 61.1°F16.2°C 54.2°F12.3°C 78% 3.5 mph SE5.6 kmh SE 8.1 mph13.0 kmh 29.80 in1009.1 mb - 0.00 in0.0 mm 0.00 in0.0 mm
08:40 AM 61.4°F16.3°C 54.8°F12.7°C 79% 4.6 mph SE7.4 kmh SE 8.1 mph13.0 kmh 29.80 in1009.1 mb - 0.00 in0.0 mm 0.00 in0.0 mm
08:50 AM 62.1°F16.7°C 54.8°F12.7°C 77% 5.8 mph SE9.3 kmh SE 9.2 mph14.8 kmh 29.79 in1008.8 mb - 0.00 in0.0 mm 0.00 in0.0 mm
09:00 AM 62.9°F17.2°C 54.9°F12.7°C 75% 5.8 mph SE9.3 kmh SE 10.4 mph16.7 kmh 29.79 in1008.8 mb - 0.00 in0.0 mm 0.00 in0.0 mm
09:10 AM 63.7°F17.6°C 54.9°F12.7°C 73% 3.5 mph SW5.6 kmh SW 5.8 mph9.3 kmh 29.78 in1008.5 mb - 0.00 in0.0 mm 0.00 in0.0 mm
09:20 AM 64.2°F17.9°C 55.4°F13.0°C 73% 5.8 mph S9.3 kmh S 9.2 mph14.8 kmh 29.78 in1008.5 mb - 0.00 in0.0 mm 0.00 in0.0 mm
09:30 AM 64.9°F18.3°C 55.7°F13.2°C 72% 5.8 mph SE9.3 kmh SE 8.1 mph13.0 kmh 29.78 in1008.5 mb - 0.00 in0.0 mm 0.00 in0.0 mm
09:40 AM 65.4°F18.6°C 55.4°F13.0°C 70% 4.6 mph S7.4 kmh S 10.4 mph16.7 kmh 29.77 in1008.1 mb - 0.00 in0.0 mm 0.00 in0.0 mm
09:50 AM 65.4°F18.6°C 55.8°F13.2°C 71% 6.9 mph SSE11.1 kmh SSE 8.1 mph13.0 kmh 29.77 in1008.1 mb - 0.00 in0.0 mm 0.00 in0.0 mm
10:00 AM 64.7°F18.2°C 55.1°F12.8°C 71% 8.1 mph S13.0 kmh S 9.2 mph14.8 kmh 29.76 in1007.8 mb - 0.00 in0.0 mm 0.00 in0.0 mm
10:10 AM 63.8°F17.7°C 55.0°F12.8°C 73% 4.6 mph SE7.4 kmh SE 8.1 mph13.0 kmh 29.76 in1007.8 mb - 0.00 in0.0 mm 0.00 in0.0 mm
10:20 AM 62.7°F17.1°C 54.7°F12.6°C 75% 3.5 mph ESE5.6 kmh ESE 5.8 mph9.3 kmh 29.76 in1007.8 mb - 0.00 in0.0 mm 0.00 in0.0 mm
10:30 AM 61.9°F16.6°C 54.6°F12.6°C 77% 3.5 mph SSE5.6 kmh SSE 8.1 mph13.0 kmh 29.76 in1007.8 mb - 0.00 in0.0 mm 0.00 in0.0 mm
10:40 AM 61.3°F16.3°C 54.7°F12.6°C 79% 3.5 mph E5.6 kmh E 6.9 mph11.1 kmh 29.75 in1007.5 mb - 0.00 in0.0 mm 0.00 in0.0 mm
10:50 AM 60.8°F16.0°C 54.9°F12.7°C 81% 3.5 mph SE5.6 kmh SE 11.5 mph18.5 kmh 29.74 in1007.1 mb - 0.00 in0.0 mm 0.00 in0.0 mm
11:00 AM 60.6°F15.9°C 55.1°F12.8°C 82% 3.5 mph SE5.6 kmh SE 3.5 mph5.6 kmh 29.73 in1006.8 mb - 0.00 in0.0 mm 0.00 in0.0 mm
11:10 AM 60.2°F15.7°C 55.7°F13.2°C 85% 4.6 mph SE7.4 kmh SE 11.5 mph18.5 kmh 29.72 in1006.4 mb - 0.00 in0.0 mm 0.00 in0.0 mm
11:20 AM 59.4°F15.2°C 55.9°F13.3°C 88% 5.8 mph SE9.3 kmh SE 5.8 mph9.3 kmh 29.72 in1006.4 mb - 0.00 in0.0 mm 0.00 in0.0 mm
11:30 AM 59.1°F15.1°C 56.2°F13.4°C 90% 3.5 mph SSE5.6 kmh SSE 2.3 mph3.7 kmh 29.71 in1006.1 mb - 0.00 in0.0 mm 0.00 in0.0 mm
11:40 AM 59.2°F15.1°C 55.3°F12.9°C 87% 5.8 mph S9.3 kmh S 11.5 mph18.5 kmh 29.71 in1006.1 mb - 0.00 in0.0 mm 0.00 in0.0 mm
11:50 AM 59.0°F15.0°C 55.2°F12.9°C 87% 3.5 mph SE5.6 kmh SE 9.2 mph14.8 kmh 29.70 in1005.8 mb - 0.00 in0.0 mm 0.00 in0.0 mm
12:00 PM 59.0°F15.0°C 55.1°F12.8°C 87% 3.5 mph S5.6 kmh S 5.8 mph9.3 kmh 29.70 in1005.8 mb - 0.00 in0.0 mm 0.00 in0.0 mm
12:10 PM 59.1°F15.1°C 55.2°F12.9°C 87% 3.5 mph S5.6 kmh S 9.2 mph14.8 kmh 29.69 in1005.4 mb - 0.00 in0.0 mm 0.00 in0.0 mm
12:20 PM 58.9°F14.9°C 55.0°F12.8°C 87% 4.6 mph S7.4 kmh S 6.9 mph11.1 kmh 29.69 in1005.4 mb - 0.00 in0.0 mm 0.00 in0.0 mm
12:30 PM 58.9°F14.9°C 55.0°F12.8°C 87% 4.6 mph S7.4 kmh S 11.5 mph18.5 kmh 29.69 in1005.4 mb - 0.00 in0.0 mm 0.00 in0.0 mm
12:40 PM 58.4°F14.7°C 54.9°F12.7°C 88% 1.2 mph SSW1.9 kmh SSW 2.3 mph3.7 kmh 29.69 in1005.4 mb - 0.00 in0.0 mm 0.00 in0.0 mm
12:50 PM 57.8°F14.3°C 54.3°F12.4°C 88% 4.6 mph SE7.4 kmh SE 8.1 mph13.0 kmh 29.70 in1005.8 mb - 0.00 in0.0 mm 0.00 in0.0 mm
01:00 PM 57.5°F14.2°C 54.3°F12.4°C 89% 2.3 mph SSE3.7 kmh SSE 6.9 mph11.1 kmh 29.69 in1005.4 mb - 0.00 in0.0 mm 0.00 in0.0 mm
01:10 PM 57.2°F14.0°C 54.3°F12.4°C 90% 3.5 mph S5.6 kmh S 3.5 mph5.6 kmh 29.68 in1005.1 mb - 0.00 in0.0 mm 0.00 in0.0 mm
01:20 PM 57.2°F14.0°C 54.6°F12.6°C 91% 3.5 mph S5.6 kmh S 2.3 mph3.7 kmh 29.67 in1004.7 mb - 0.00 in0.0 mm 0.00 in0.0 mm
01:30 PM 56.9°F13.8°C 54.3°F12.4°C 91% 4.6 mph SSW7.4 kmh SSW 5.8 mph9.3 kmh 29.66 in1004.4 mb - 0.00 in0.0 mm 0.00 in0.0 mm
01:40 PM 56.8°F13.8°C 54.5°F12.5°C 92% 1.2 mph SE1.9 kmh SE 2.3 mph3.7 kmh 29.65 in1004.1 mb - 0.00 in0.0 mm 0.00 in0.0 mm
01:50 PM 56.6°F13.7°C 54.9°F12.7°C 94% 3.5 mph WSW5.6 kmh WSW 6.9 mph11.1 kmh 29.66 in1004.4 mb - 0.00 in0.0 mm 0.00 in0.0 mm
02:00 PM 55.8°F13.2°C 55.0°F12.8°C 97% 2.3 mph SE3.7 kmh SE 2.3 mph3.7 kmh 29.65 in1004.1 mb - 0.01 in0.3 mm 0.01 in0.3 mm
02:10 PM 55.4°F13.0°C 54.6°F12.6°C 97% 2.3 mph SE3.7 kmh SE 3.5 mph5.6 kmh 29.64 in1003.7 mb - 0.03 in0.8 mm 0.03 in0.8 mm
02:20 PM 55.1°F12.8°C 54.3°F12.4°C 97% 2.3 mph S3.7 kmh S 2.3 mph3.7 kmh 29.64 in1003.7 mb - 0.04 in1.0 mm 0.04 in1.0 mm
02:30 PM 54.7°F12.6°C 53.9°F12.2°C 97% 2.3 mph WSW3.7 kmh WSW 3.5 mph5.6 kmh 29.64 in1003.7 mb - 0.04 in1.0 mm 0.04 in1.0 mm
02:40 PM 54.4°F12.4°C 53.6°F12.0°C 97% 3.5 mph S5.6 kmh S 5.8 mph9.3 kmh 29.64 in1003.7 mb - 0.05 in1.3 mm 0.05 in1.3 mm
02:50 PM 54.2°F12.3°C 53.4°F11.9°C 97% 2.3 mph S3.7 kmh S 3.5 mph5.6 kmh 29.64 in1003.7 mb - 0.05 in1.3 mm 0.05 in1.3 mm
03:00 PM 54.1°F12.3°C 53.3°F11.8°C 97% 2.3 mph SW3.7 kmh SW 2.3 mph3.7 kmh 29.64 in1003.7 mb - 0.04 in1.0 mm 0.05 in1.3 mm
03:10 PM 53.9°F12.2°C 53.1°F11.7°C 97% 2.3 mph S3.7 kmh S 2.3 mph3.7 kmh 29.64 in1003.7 mb - 0.03 in0.8 mm 0.06 in1.5 mm
03:20 PM 53.9°F12.2°C 53.1°F11.7°C 97% 2.3 mph ESE3.7 kmh ESE 3.5 mph5.6 kmh 29.64 in1003.7 mb - 0.03 in0.8 mm 0.07 in1.8 mm
03:30 PM 53.8°F12.1°C 53.0°F11.7°C 97% 3.5 mph WSW5.6 kmh WSW 5.8 mph9.3 kmh 29.64 in1003.7 mb - 0.04 in1.0 mm 0.08 in2.0 mm
03:40 PM 52.3°F11.3°C 51.4°F10.8°C 97% 6.9 mph WSW11.1 kmh WSW 10.4 mph16.7 kmh 29.65 in1004.1 mb - 0.07 in1.8 mm 0.12 in3.0 mm
03:50 PM 50.7°F10.4°C 49.8°F9.9°C 97% 4.6 mph W7.4 kmh W 5.8 mph9.3 kmh 29.66 in1004.4 mb - 0.07 in1.8 mm 0.12 in3.0 mm
04:00 PM 49.2°F9.6°C 48.4°F9.1°C 97% 4.6 mph WSW7.4 kmh WSW 5.8 mph9.3 kmh 29.67 in1004.7 mb - 0.08 in2.0 mm 0.13 in3.3 mm
04:10 PM 48.3°F9.1°C 47.5°F8.6°C 97% 2.3 mph WSW3.7 kmh WSW 2.3 mph3.7 kmh 29.68 in1005.1 mb - 0.09 in2.3 mm 0.15 in3.8 mm
04:20 PM 47.9°F8.8°C 47.1°F8.4°C 97% 3.5 mph W5.6 kmh W 2.3 mph3.7 kmh 29.67 in1004.7 mb - 0.09 in2.3 mm 0.16 in4.1 mm
04:30 PM 47.5°F8.6°C 46.7°F8.2°C 97% 2.3 mph W3.7 kmh W 5.8 mph9.3 kmh 29.66 in1004.4 mb - 0.09 in2.3 mm 0.17 in4.3 mm
04:40 PM 47.2°F8.4°C 46.4°F8.0°C 97% 2.3 mph W3.7 kmh W 3.5 mph5.6 kmh 29.67 in1004.7 mb - 0.06 in1.5 mm 0.17 in4.3 mm
04:50 PM 46.8°F8.2°C 46.0°F7.8°C 97% 4.6 mph WNW7.4 kmh WNW 11.5 mph18.5 kmh 29.67 in1004.7 mb - 0.05 in1.3 mm 0.17 in4.3 mm
05:00 PM 46.4°F8.0°C 45.6°F7.6°C 97% 2.3 mph NW3.7 kmh NW 2.3 mph3.7 kmh 29.67 in1004.7 mb - 0.04 in1.0 mm 0.17 in4.3 mm
05:10 PM 45.8°F7.7°C 45.0°F7.2°C 97% 4.6 mph NNW7.4 kmh NNW 8.1 mph13.0 kmh 29.68 in1005.1 mb - 0.02 in0.5 mm 0.17 in4.3 mm
05:20 PM 44.7°F7.1°C 43.7°F6.5°C 96% 5.8 mph NW9.3 kmh NW 5.8 mph9.3 kmh 29.69 in1005.4 mb - 0.01 in0.3 mm 0.17 in4.3 mm
05:30 PM 44.1°F6.7°C 43.1°F6.2°C 96% 6.9 mph WSW11.1 kmh WSW 15.0 mph24.1 kmh 29.69 in1005.4 mb - 0.00 in0.0 mm 0.17 in4.3 mm
05:40 PM 43.5°F6.4°C 42.4°F5.8°C 96% 6.9 mph WSW11.1 kmh WSW 13.8 mph22.2 kmh 29.70 in1005.8 mb - 0.01 in0.3 mm 0.18 in4.6 mm
05:50 PM 42.6°F5.9°C 41.6°F5.3°C 96% 3.5 mph NW5.6 kmh NW 6.9 mph11.1 kmh 29.70 in1005.8 mb - 0.01 in0.3 mm 0.18 in4.6 mm
06:00 PM 42.2°F5.7°C 41.1°F5.1°C 96% 2.3 mph WSW3.7 kmh WSW 2.3 mph3.7 kmh 29.70 in1005.8 mb - 0.01 in0.3 mm 0.18 in4.6 mm
06:10 PM 41.8°F5.4°C 40.7°F4.8°C 96% 4.6 mph W7.4 kmh W 3.5 mph5.6 kmh 29.70 in1005.8 mb - 0.02 in0.5 mm 0.19 in4.8 mm
06:20 PM 41.5°F5.3°C 40.4°F4.7°C 96% 5.8 mph NNW9.3 kmh NNW 8.1 mph13.0 kmh 29.70 in1005.8 mb - 0.02 in0.5 mm 0.19 in4.8 mm
06:30 PM 41.2°F5.1°C 40.1°F4.5°C 96% 2.3 mph WSW3.7 kmh WSW 2.3 mph3.7 kmh 29.70 in1005.8 mb - 0.02 in0.5 mm 0.19 in4.8 mm
06:40 PM 41.0°F5.0°C 39.9°F4.4°C 96% 2.3 mph NW3.7 kmh NW 5.8 mph9.3 kmh 29.70 in1005.8 mb - 0.02 in0.5 mm 0.20 in5.1 mm
06:50 PM 40.9°F4.9°C 39.8°F4.3°C 96% 2.3 mph WNW3.7 kmh WNW 2.3 mph3.7 kmh 29.70 in1005.8 mb - 0.02 in0.5 mm 0.20 in5.1 mm
07:00 PM 40.7°F4.8°C 39.6°F4.2°C 96% 2.3 mph W3.7 kmh W 2.3 mph3.7 kmh 29.70 in1005.8 mb - 0.02 in0.5 mm 0.20 in5.1 mm
07:10 PM 40.3°F4.6°C 39.3°F4.1°C 96% 4.6 mph WSW7.4 kmh WSW 3.5 mph5.6 kmh 29.70 in1005.8 mb - 0.01 in0.3 mm 0.20 in5.1 mm
07:20 PM 39.9°F4.4°C 38.9°F3.8°C 96% 4.6 mph WSW7.4 kmh WSW 5.8 mph9.3 kmh 29.69 in1005.4 mb - 0.01 in0.3 mm 0.20 in5.1 mm
07:30 PM 39.6°F4.2°C 38.6°F3.7°C 96% 1.2 mph WSW1.9 kmh WSW 2.3 mph3.7 kmh 29.69 in1005.4 mb - 0.01 in0.3 mm 0.20 in5.1 mm
07:40 PM 39.5°F4.2°C 38.4°F3.6°C 96% 8.1 mph WNW13.0 kmh WNW 9.2 mph14.8 kmh 29.70 in1005.8 mb - 0.00 in0.0 mm 0.20 in5.1 mm
07:50 PM 39.3°F4.1°C 38.2°F3.4°C 96% 4.6 mph WSW7.4 kmh WSW 6.9 mph11.1 kmh 29.71 in1006.1 mb - 0.00 in0.0 mm 0.20 in5.1 mm
08:00 PM 39.1°F3.9°C 38.0°F3.3°C 96% 4.6 mph W7.4 kmh W 2.3 mph3.7 kmh 29.71 in1006.1 mb - 0.00 in0.0 mm 0.20 in5.1 mm
08:10 PM 38.9°F3.8°C 37.9°F3.3°C 96% 6.9 mph SW11.1 kmh SW 9.2 mph14.8 kmh 29.72 in1006.4 mb - 0.00 in0.0 mm 0.20 in5.1 mm
08:20 PM 38.9°F3.8°C 37.9°F3.3°C 96% 8.1 mph W13.0 kmh W 15.0 mph24.1 kmh 29.72 in1006.4 mb - 0.00 in0.0 mm 0.20 in5.1 mm
08:30 PM 38.6°F3.7°C 37.6°F3.1°C 96% 5.8 mph W9.3 kmh W 8.1 mph13.0 kmh 29.72 in1006.4 mb - 0.00 in0.0 mm 0.20 in5.1 mm
08:40 PM 38.5°F3.6°C 36.7°F2.6°C 93% 4.6 mph WSW7.4 kmh WSW 5.8 mph9.3 kmh 29.72 in1006.4 mb - 0.00 in0.0 mm 0.20 in5.1 mm
08:50 PM 38.4°F3.6°C 36.6°F2.6°C 93% 4.6 mph WNW7.4 kmh WNW 5.8 mph9.3 kmh 29.73 in1006.8 mb - 0.00 in0.0 mm 0.20 in5.1 mm
09:00 PM 38.2°F3.4°C 36.1°F2.3°C 92% 4.6 mph W7.4 kmh W 6.9 mph11.1 kmh 29.73 in1006.8 mb - 0.00 in0.0 mm 0.20 in5.1 mm
09:10 PM 38.3°F3.5°C 35.9°F2.2°C 91% 5.8 mph WSW9.3 kmh WSW 13.8 mph22.2 kmh 29.73 in1006.8 mb - 0.00 in0.0 mm 0.20 in5.1 mm
09:20 PM 38.2°F3.4°C 35.5°F1.9°C 90% 5.8 mph WSW9.3 kmh WSW 9.2 mph14.8 kmh 29.72 in1006.4 mb - 0.00 in0.0 mm 0.20 in5.1 mm
09:30 PM 38.2°F3.4°C 35.2°F1.8°C 89% 5.8 mph WNW9.3 kmh WNW 11.5 mph18.5 kmh 29.73 in1006.8 mb - 0.00 in0.0 mm 0.20 in5.1 mm
09:40 PM 38.1°F3.4°C 34.5°F1.4°C 87% 5.8 mph W9.3 kmh W 6.9 mph11.1 kmh 29.73 in1006.8 mb - 0.00 in0.0 mm 0.20 in5.1 mm
09:50 PM 37.9°F3.3°C 34.0°F1.1°C 86% 4.6 mph WSW7.4 kmh WSW 8.1 mph13.0 kmh 29.73 in1006.8 mb - 0.00 in0.0 mm 0.20 in5.1 mm
10:00 PM 37.8°F3.2°C 34.0°F1.1°C 86% 3.5 mph WSW5.6 kmh WSW 3.5 mph5.6 kmh 29.74 in1007.1 mb - 0.00 in0.0 mm 0.20 in5.1 mm
10:10 PM 37.4°F3.0°C 33.9°F1.1°C 87% 4.6 mph W7.4 kmh W 5.8 mph9.3 kmh 29.74 in1007.1 mb - 0.00 in0.0 mm 0.20 in5.1 mm
10:20 PM 37.2°F2.9°C 33.7°F0.9°C 87% 4.6 mph WSW7.4 kmh WSW 5.8 mph9.3 kmh 29.74 in1007.1 mb - 0.00 in0.0 mm 0.20 in5.1 mm
10:30 PM 37.1°F2.8°C 33.3°F0.7°C 86% 3.5 mph SW5.6 kmh SW 3.5 mph5.6 kmh 29.74 in1007.1 mb - 0.00 in0.0 mm 0.20 in5.1 mm
10:40 PM 36.8°F2.7°C 33.0°F0.6°C 86% 5.8 mph WSW9.3 kmh WSW 11.5 mph18.5 kmh 29.74 in1007.1 mb - 0.00 in0.0 mm 0.20 in5.1 mm
10:50 PM 37.2°F2.9°C 33.1°F0.6°C 85% 3.5 mph WSW5.6 kmh WSW 13.8 mph22.2 kmh 29.74 in1007.1 mb - 0.00 in0.0 mm 0.20 in5.1 mm
11:00 PM 37.5°F3.1°C 33.1°F0.6°C 84% 4.6 mph NW7.4 kmh NW 5.8 mph9.3 kmh 29.75 in1007.5 mb - 0.00 in0.0 mm 1.21 in30.7 mm
11:10 PM 37.8°F3.2°C 32.8°F0.4°C 82% 5.8 mph SW9.3 kmh SW 9.2 mph14.8 kmh 29.75 in1007.5 mb - 0.00 in0.0 mm 1.21 in30.7 mm
11:20 PM 37.8°F3.2°C 32.8°F0.4°C 82% 3.5 mph WSW5.6 kmh WSW 3.5 mph5.6 kmh 29.76 in1007.8 mb - 0.00 in0.0 mm 1.21 in30.7 mm
11:30 PM 37.6°F3.1°C 32.6°F0.3°C 82% 2.3 mph NW3.7 kmh NW 3.5 mph5.6 kmh 29.76 in1007.8 mb - 0.00 in0.0 mm 1.21 in30.7 mm
11:40 PM 37.4°F3.0°C 32.1°F0.1°C 81% 3.5 mph W5.6 kmh W 3.5 mph5.6 kmh 29.76 in1007.8 mb - 0.00 in0.0 mm 1.21 in30.7 mm
11:50 PM 37.1°F2.8°C 31.8°F-0.1°C 81% 2.3 mph W3.7 kmh W 9.2 mph14.8 kmh 29.77 in1008.1 mb - 0.00 in0.0 mm 1.21 in30.7 mm